Time;durP1;ratioP1;P1;durP2;ratioP2;P2;SDS_P1;SDS_P2;PMS_P1;PMS_P2;Temp;Humidity;BMP_temperature;BMP_pressure;BME280_temperature;BME280_humidity;BME280_pressure;Samples;Min_cycle;Max_cycle;Signal;HPM_P1;HPM_P2
2022/01/06 00:01:54;;;;;;;21.83;4.20;;;8.80;99.90;;;;;;5058988;28;20081;-85
2022/01/06 00:04:19;;;;;;;12.77;2.75;;;7.70;99.90;;;;;;5075255;28;20036;-85
2022/01/06 00:06:45;;;;;;;15.88;2.55;;;6.70;99.90;;;;;;5093731;28;20040;-85
2022/01/06 00:09:15;;;;;;;24.92;4.10;;;6.60;99.90;;;;;;5075468;28;20419;-85
2022/01/06 00:11:41;;;;;;;19.00;3.22;;;6.70;99.90;;;;;;5075246;28;20048;-85
2022/01/06 00:14:15;;;;;;;20.25;2.75;;;7.60;99.90;;;;;;5075224;28;20040;-84
2022/01/06 00:24:47;;;;;;;24.02;4.75;;;6.90;99.90;;;;;;5075164;28;20051;-85
2022/01/06 00:27:12;;;;;;;28.95;4.95;;;7.50;99.90;;;;;;5058312;28;20036;-84
2022/01/06 00:29:38;;;;;;;33.72;5.72;;;7.00;99.90;;;;;;5058284;28;20051;-85
2022/01/06 00:32:04;;;;;;;44.78;8.88;;;7.00;99.90;;;;;;5058580;28;20044;-84
2022/01/06 00:34:30;;;;;;;31.70;5.43;;;6.80;99.90;;;;;;5058231;28;20051;-85
2022/01/06 00:36:55;;;;;;;31.33;5.20;;;7.00;99.90;;;;;;5058087;28;20431;-85
2022/01/06 00:39:26;;;;;;;44.30;6.45;;;7.30;99.90;;;;;;5058517;28;20062;-85
2022/01/06 00:41:55;;;;;;;28.52;4.57;;;9.10;99.90;;;;;;5075306;28;20176;-85
2022/01/06 00:44:21;;;;;;;34.30;4.70;;;8.70;99.90;;;;;;5075247;28;20040;-85
2022/01/06 00:46:47;;;;;;;42.40;6.03;;;8.80;99.90;;;;;;5074671;28;20036;-85
2022/01/06 00:49:13;;;;;;;23.20;4.30;;;9.30;99.90;;;;;;5075790;28;20665;-85
2022/01/06 00:51:38;;;;;;;30.88;4.63;;;8.80;99.90;;;;;;5074599;28;20055;-85
2022/01/06 00:54:04;;;;;;;29.27;4.45;;;9.50;99.90;;;;;;5075068;28;20399;-85
2022/01/06 00:56:30;;;;;;;25.65;4.05;;;8.60;99.90;;;;;;5074501;28;20087;-85
2022/01/06 00:58:55;;;;;;;38.63;5.05;;;8.50;99.90;;;;;;5074938;28;20083;-85
2022/01/06 01:01:21;;;;;;;37.00;4.78;;;9.70;99.90;;;;;;5075038;28;20101;-85
2022/01/06 01:03:47;;;;;;;25.77;4.82;;;9.00;99.90;;;;;;5093050;28;20040;-85
2022/01/06 01:06:13;;;;;;;34.13;5.10;;;8.40;99.90;;;;;;5074790;28;20089;-85
2022/01/06 01:08:38;;;;;;;29.42;5.30;;;7.40;99.90;;;;;;5058142;28;20051;-85
2022/01/06 01:11:05;;;;;;;35.42;5.43;;;9.50;99.90;;;;;;5075325;28;20044;-86
2022/01/06 01:13:32;;;;;;;28.98;4.88;;;9.50;99.90;;;;;;5074485;28;20055;-85
2022/01/06 01:16:10;;;;;;;36.15;5.57;;;8.80;99.90;;;;;;5053231;28;20062;-85
2022/01/06 01:18:36;;;;;;;32.50;4.82;;;7.40;99.90;;;;;;5058516;28;20058;-84
2022/01/06 01:21:02;;;;;;;27.30;4.32;;;7.80;99.90;;;;;;5078425;28;20044;-85
2022/01/06 01:23:27;;;;;;;26.42;3.88;;;9.20;99.90;;;;;;5078188;28;20094;-84
2022/01/06 01:25:53;;;;;;;26.83;3.90;;;9.60;99.90;;;;;;5061820;28;20453;-85
2022/01/06 01:28:19;;;;;;;45.72;4.90;;;9.30;99.90;;;;;;5076336;28;20503;-85
2022/01/06 01:31:01;;;;;;;25.92;4.43;;;7.90;99.90;;;;;;5061340;28;20036;-85
2022/01/06 01:33:29;;;;;;;21.00;3.35;;;9.30;99.90;;;;;;5061864;28;20040;-85
2022/01/06 01:35:54;;;;;;;22.58;3.88;;;7.40;99.90;;;;;;5061255;28;20074;-85
2022/01/06 01:38:20;;;;;;;13.60;2.80;;;9.40;99.90;;;;;;5071419;28;20071;-84
2022/01/06 01:40:46;;;;;;;12.88;3.40;;;9.40;99.90;;;;;;5115781;28;20055;-84
2022/01/06 01:43:11;;;;;;;21.90;3.22;;;9.50;99.90;;;;;;5102585;28;20044;-84
2022/01/06 01:45:45;;;;;;;16.25;3.20;;;9.20;99.90;;;;;;5096559;28;20036;-84
2022/01/06 01:48:18;;;;;;;19.10;2.55;;;9.90;99.90;;;;;;5078098;28;20048;-84
2022/01/06 01:50:44;;;;;;;23.67;3.90;;;8.30;99.90;;;;;;5078153;28;20063;-84
2022/01/06 01:53:10;;;;;;;20.30;3.30;;;9.80;99.90;;;;;;5096300;28;20040;-84
2022/01/06 01:55:36;;;;;;;20.67;2.88;;;9.20;99.90;;;;;;5077807;28;20046;-84
2022/01/06 01:58:02;;;;;;;26.30;4.60;;;9.60;99.90;;;;;;5077778;28;20044;-84
2022/01/06 02:00:30;;;;;;;22.60;4.13;;;8.60;99.90;;;;;;5078066;28;20048;-84
2022/01/06 02:02:56;;;;;;;20.23;3.35;;;8.90;99.90;;;;;;5077696;28;20040;-84
2022/01/06 02:05:27;;;;;;;23.05;3.92;;;9.40;99.90;;;;;;5078032;28;20040;-84
2022/01/06 02:07:55;;;;;;;40.22;4.97;;;9.20;99.90;;;;;;5077744;28;20414;-84
2022/01/06 02:10:21;;;;;;;23.20;4.85;;;7.40;99.90;;;;;;5077870;28;20044;-84
2022/01/06 02:12:49;;;;;;;24.08;4.43;;;9.70;99.90;;;;;;5061507;28;20040;-84
2022/01/06 02:15:15;;;;;;;29.95;5.57;;;9.60;99.90;;;;;;5076999;28;20126;-84
2022/01/06 02:17:41;;;;;;;31.90;4.85;;;7.30;99.90;;;;;;5040697;28;20098;-84
2022/01/06 02:20:11;;;;;;;34.47;5.38;;;9.00;99.90;;;;;;5057682;28;20041;-84
2022/01/06 02:22:37;;;;;;;31.40;4.55;;;7.20;99.90;;;;;;5057715;28;20043;-84
2022/01/06 02:25:13;;;;;;;32.88;4.43;;;8.30;99.90;;;;;;5057180;28;20040;-84
2022/01/06 02:27:39;;;;;;;23.13;3.97;;;7.10;99.90;;;;;;5057207;28;20086;-84
2022/01/06 02:30:05;;;;;;;31.85;3.78;;;6.90;99.90;;;;;;5057364;28;20049;-84
2022/01/06 02:32:31;;;;;;;32.30;4.15;;;6.70;99.90;;;;;;5056925;28;20532;-85
2022/01/06 02:34:57;;;;;;;22.10;3.67;;;6.80;99.90;;;;;;5039494;28;20072;-85
2022/01/06 02:37:22;;;;;;;21.55;3.90;;;9.20;99.90;;;;;;5038657;28;20120;-85
2022/01/06 02:39:48;;;;;;;23.52;4.78;;;8.90;99.90;;;;;;5073562;28;20818;-85
2022/01/06 02:42:14;;;;;;;26.85;4.72;;;6.80;99.90;;;;;;5073473;28;20119;-85
2022/01/06 02:44:40;;;;;;;34.17;3.95;;;9.10;99.90;;;;;;5056804;28;20123;-85
2022/01/06 02:47:07;;;;;;;33.20;4.70;;;8.80;99.90;;;;;;5040165;28;20128;-85
2022/01/06 02:49:33;;;;;;;33.05;4.55;;;9.00;99.90;;;;;;5040283;28;20051;-85
2022/01/06 02:52:00;;;;;;;40.38;5.25;;;8.90;99.90;;;;;;5056898;28;20076;-85
2022/01/06 02:54:26;;;;;;;36.63;4.85;;;9.00;99.90;;;;;;5040104;28;20044;-85
2022/01/06 02:56:52;;;;;;;26.15;3.97;;;8.70;99.90;;;;;;5040158;28;20044;-85
2022/01/06 02:59:18;;;;;;;34.97;4.50;;;8.60;99.90;;;;;;5056765;28;20130;-85
2022/01/06 03:01:44;;;;;;;28.08;4.50;;;6.50;99.90;;;;;;5040079;28;20044;-85
2022/01/06 03:04:11;;;;;;;23.77;4.70;;;8.70;99.90;;;;;;5056582;28;20043;-85
2022/01/06 03:06:38;;;;;;;23.67;3.30;;;6.50;99.90;;;;;;5056842;28;20118;-85
2022/01/06 03:09:04;;;;;;;18.90;3.40;;;7.80;99.90;;;;;;5056616;28;20041;-85
2022/01/06 03:11:30;;;;;;;27.02;3.88;;;8.40;99.90;;;;;;5039921;28;20508;-85
2022/01/06 03:13:56;;;;;;;31.52;4.45;;;9.00;99.90;;;;;;5039762;28;20042;-85
2022/01/06 03:16:22;;;;;;;25.63;3.88;;;8.00;99.90;;;;;;5064545;28;20058;-85
2022/01/06 03:18:48;;;;;;;31.02;3.67;;;6.70;99.90;;;;;;5059649;28;20480;-85
2022/01/06 03:21:14;;;;;;;37.50;4.40;;;6.60;99.90;;;;;;5059431;28;20127;-85
2022/01/06 03:23:40;;;;;;;32.63;4.22;;;8.40;99.90;;;;;;5056040;28;20038;-85
2022/01/06 03:26:06;;;;;;;25.10;4.47;;;7.80;99.90;;;;;;5056441;28;20105;-85
2022/01/06 03:28:32;;;;;;;26.67;4.10;;;6.60;99.90;;;;;;5065550;28;20515;-85
2022/01/06 03:30:58;;;;;;;30.73;5.15;;;6.60;99.90;;;;;;5076285;28;20085;-85
2022/01/06 03:33:24;;;;;;;30.77;4.43;;;7.10;99.90;;;;;;5076445;28;20489;-85
2022/01/06 03:35:49;;;;;;;29.40;4.80;;;6.50;99.90;;;;;;5059243;28;20119;-85
2022/01/06 03:38:15;;;;;;;22.55;3.88;;;6.40;99.90;;;;;;5076245;28;20051;-85
2022/01/06 03:40:41;;;;;;;27.17;3.83;;;8.70;99.90;;;;;;5059371;28;20043;-85
2022/01/06 03:43:08;;;;;;;29.63;3.83;;;8.40;99.90;;;;;;5058465;28;20100;-86
2022/01/06 03:45:34;;;;;;;27.63;4.30;;;6.30;99.90;;;;;;5073904;28;20044;-85
2022/01/06 03:48:00;;;;;;;29.33;4.57;;;6.20;99.90;;;;;;5058680;28;20476;-85
2022/01/06 03:50:26;;;;;;;37.08;4.20;;;8.70;99.90;;;;;;5075595;28;20040;-86
2022/01/06 03:52:52;;;;;;;31.33;4.45;;;6.30;99.90;;;;;;5075632;28;20377;-85
2022/01/06 03:55:19;;;;;;;21.55;3.45;;;8.60;99.90;;;;;;5075523;28;20036;-85
2022/01/06 03:57:46;;;;;;;31.73;4.22;;;6.80;99.90;;;;;;5075701;28;20438;-86
2022/01/06 04:00:15;;;;;;;27.48;3.35;;;6.40;99.90;;;;;;5059028;28;20044;-86
2022/01/06 04:02:44;;;;;;;27.70;3.72;;;6.30;99.90;;;;;;5058777;28;20044;-85
2022/01/06 04:05:11;;;;;;;23.77;3.42;;;8.60;99.90;;;;;;5075628;28;20113;-86
2022/01/06 04:07:37;;;;;;;22.13;3.55;;;6.70;99.90;;;;;;5075513;28;20377;-84
2022/01/06 04:10:05;;;;;;;22.85;3.72;;;6.20;99.90;;;;;;5075365;28;20040;-86
2022/01/06 04:12:34;;;;;;;33.05;3.78;;;6.10;99.90;;;;;;5075575;28;20541;-86
2022/01/06 04:15:00;;;;;;;21.52;3.22;;;8.30;99.90;;;;;;5075197;28;20508;-85
2022/01/06 04:17:26;;;;;;;24.88;3.25;;;6.90;99.90;;;;;;5074915;28;20060;-86
2022/01/06 04:19:51;;;;;;;22.42;3.88;;;8.40;99.90;;;;;;5075241;28;20408;-86
2022/01/06 04:22:17;;;;;;;25.17;3.95;;;8.30;99.90;;;;;;5059213;28;20526;-86
2022/01/06 04:24:43;;;;;;;31.88;3.83;;;7.60;99.90;;;;;;5058743;28;20564;-86
2022/01/06 04:27:08;;;;;;;31.40;4.35;;;7.70;99.90;;;;;;5075046;28;20032;-85
2022/01/06 04:29:34;;;;;;;26.88;3.85;;;6.30;99.90;;;;;;5075384;28;20044;-86
2022/01/06 04:32:00;;;;;;;25.38;3.13;;;6.70;99.90;;;;;;5075288;28;20395;-86
2022/01/06 04:34:25;;;;;;;27.27;3.53;;;6.50;99.90;;;;;;5075193;28;20569;-86
2022/01/06 04:36:55;;;;;;;22.48;3.50;;;8.00;99.90;;;;;;5093457;28;20042;-86
2022/01/06 04:39:20;;;;;;;27.30;3.28;;;5.90;99.90;;;;;;5074902;28;20051;-86
2022/01/06 04:41:46;;;;;;;27.25;3.22;;;5.90;99.90;;;;;;5074882;28;20032;-86
2022/01/06 04:44:12;;;;;;;24.33;3.65;;;5.00;99.90;;;;;;5074946;28;20044;-86
2022/01/06 04:46:37;;;;;;;33.47;3.80;;;6.20;99.90;;;;;;5076248;28;20361;-86
2022/01/06 04:49:04;;;;;;;25.73;4.00;;;8.00;99.90;;;;;;5075332;28;20070;-86
2022/01/06 04:51:30;;;;;;;26.23;3.80;;;7.60;99.90;;;;;;5058283;28;20456;-86
2022/01/06 04:53:57;;;;;;;26.60;3.88;;;5.70;99.90;;;;;;5073025;28;20048;-86
2022/01/06 04:56:23;;;;;;;28.15;3.45;;;8.00;99.90;;;;;;5074931;28;20040;-86
2022/01/06 04:58:49;;;;;;;24.52;4.03;;;7.80;99.90;;;;;;5074924;28;20407;-86
2022/01/06 05:01:15;;;;;;;26.30;3.65;;;5.80;99.90;;;;;;5058293;28;20043;-87
2022/01/06 05:03:41;;;;;;;21.00;3.35;;;7.70;99.90;;;;;;5074698;28;20518;-86
2022/01/06 05:06:07;;;;;;;23.80;3.67;;;7.70;99.90;;;;;;5074732;28;20123;-87
2022/01/06 05:08:33;;;;;;;27.35;3.80;;;5.90;99.90;;;;;;5075129;28;20132;-87
2022/01/06 05:10:59;;;;;;;33.28;4.00;;;7.30;99.90;;;;;;5057756;28;20725;-87
2022/01/06 05:13:24;;;;;;;28.17;4.38;;;8.30;99.90;;;;;;5074871;28;20412;-86
2022/01/06 05:15:50;;;;;;;25.17;4.43;;;7.20;99.90;;;;;;5074488;28;20097;-87
2022/01/06 05:18:16;;;;;;;21.23;3.55;;;7.70;99.90;;;;;;5057960;28;20060;-87
2022/01/06 05:20:43;;;;;;;31.60;4.25;;;7.80;99.90;;;;;;5074459;28;20500;-87
2022/01/06 05:23:10;;;;;;;36.28;3.90;;;7.90;99.90;;;;;;5074653;28;20051;-86
2022/01/06 05:25:36;;;;;;;28.20;3.70;;;7.00;99.90;;;;;;5091312;28;20051;-87
2022/01/06 05:28:02;;;;;;;27.15;4.15;;;7.60;99.90;;;;;;5074551;28;20123;-87
2022/01/06 05:30:28;;;;;;;23.33;4.47;;;5.80;99.90;;;;;;5074745;28;20451;-87
2022/01/06 05:32:54;;;;;;;27.33;3.35;;;6.90;99.90;;;;;;5058901;28;20040;-87
2022/01/06 05:35:20;;;;;;;26.70;3.38;;;6.70;99.90;;;;;;5058040;28;20040;-86
2022/01/06 05:37:46;;;;;;;27.45;3.95;;;7.70;99.90;;;;;;5074824;28;20047;-87
2022/01/06 05:40:12;;;;;;;33.17;4.53;;;8.00;99.90;;;;;;5074437;28;20036;-86
2022/01/06 05:42:38;;;;;;;23.33;3.47;;;5.60;99.90;;;;;;5074562;28;20091;-86
2022/01/06 05:45:05;;;;;;;27.88;4.07;;;7.70;99.90;;;;;;5074670;28;20080;-87
2022/01/06 05:47:30;;;;;;;15.23;2.88;;;5.60;99.90;;;;;;5074322;28;20044;-87
2022/01/06 05:49:56;;;;;;;25.23;3.40;;;6.10;99.90;;;;;;5057867;28;20606;-87
2022/01/06 05:52:22;;;;;;;24.55;3.08;;;7.50;99.90;;;;;;5074121;28;20044;-87
2022/01/06 05:54:48;;;;;;;20.48;3.20;;;8.20;99.90;;;;;;5074536;28;20040;-86
2022/01/06 05:57:15;;;;;;;23.95;3.70;;;6.70;99.90;;;;;;5057305;28;20485;-87
2022/01/06 05:59:41;;;;;;;12.32;2.25;;;7.80;99.90;;;;;;5075080;28;20498;-87
2022/01/06 06:02:07;;;;;;;18.70;2.80;;;5.90;99.90;;;;;;5072807;28;20097;-87
2022/01/06 06:04:33;;;;;;;16.77;2.80;;;7.30;99.90;;;;;;5074809;28;20139;-87
2022/01/06 06:06:59;;;;;;;20.05;2.97;;;6.30;99.90;;;;;;5078391;28;20101;-87
2022/01/06 06:09:24;;;;;;;21.05;3.42;;;7.40;99.90;;;;;;5077655;28;20040;-87
2022/01/06 06:11:50;;;;;;;17.67;3.10;;;7.20;99.90;;;;;;5077466;28;20044;-87
2022/01/06 06:14:16;;;;;;;22.00;3.50;;;6.20;99.90;;;;;;5077559;28;20664;-86
2022/01/06 06:16:42;;;;;;;27.85;3.55;;;6.00;99.90;;;;;;5076854;28;20059;-87
2022/01/06 06:19:07;;;;;;;31.58;4.22;;;6.90;99.90;;;;;;5077544;28;20462;-87
2022/01/06 06:21:33;;;;;;;26.17;3.53;;;5.90;99.90;;;;;;5077455;28;20439;-87
2022/01/06 06:23:59;;;;;;;21.27;4.18;;;5.30;99.90;;;;;;5095876;28;20059;-87
2022/01/06 06:26:24;;;;;;;27.25;3.40;;;7.10;99.90;;;;;;5077367;28;20456;-87
2022/01/06 06:28:50;;;;;;;38.92;4.13;;;7.30;99.90;;;;;;5077717;28;20040;-87
2022/01/06 06:31:16;;;;;;;34.40;4.97;;;5.90;99.90;;;;;;5077558;28;20139;-87
2022/01/06 06:33:41;;;;;;;32.85;4.00;;;7.00;99.90;;;;;;5077097;28;20036;-87
2022/01/06 06:36:07;;;;;;;31.35;4.05;;;6.50;99.90;;;;;;5077162;28;20040;-87
2022/01/06 06:38:33;;;;;;;35.15;4.10;;;7.70;99.90;;;;;;5060232;28;20036;-87
2022/01/06 06:40:59;;;;;;;20.15;3.80;;;5.10;99.90;;;;;;5076869;28;20086;-87
2022/01/06 06:43:55;;;;;;;29.85;4.35;;;5.60;99.90;;;;;;5077160;28;20034;-87
2022/01/06 06:46:21;;;;;;;36.90;4.55;;;5.60;99.90;;;;;;5060186;28;20086;-87
2022/01/06 06:48:47;;;;;;;29.92;3.65;;;7.70;99.90;;;;;;5076874;28;20048;-87
2022/01/06 06:51:13;;;;;;;35.65;4.70;;;7.00;99.90;;;;;;5076948;28;20127;-86
2022/01/06 06:53:40;;;;;;;42.28;4.60;;;5.60;99.90;;;;;;5077090;28;20411;-87
2022/01/06 06:56:06;;;;;;;27.77;4.20;;;7.60;99.90;;;;;;5060225;28;20357;-86
2022/01/06 06:58:32;;;;;;;41.55;4.28;;;7.20;99.90;;;;;;5060962;28;20035;-87
2022/01/06 07:00:57;;;;;;;33.83;4.00;;;6.80;99.90;;;;;;5061021;28;20097;-86
2022/01/06 07:03:23;;;;;;;31.40;4.47;;;5.30;99.90;;;;;;5077042;28;20123;-87
2022/01/06 07:05:49;;;;;;;25.67;3.78;;;6.50;99.90;;;;;;5076803;28;20113;-86
2022/01/06 07:08:14;;;;;;;27.73;3.70;;;7.50;99.90;;;;;;5078095;28;20349;-86
2022/01/06 07:10:40;;;;;;;23.08;3.55;;;5.30;99.90;;;;;;5073543;28;20464;-85
2022/01/06 07:13:06;;;;;;;20.58;3.15;;;6.30;99.90;;;;;;5072656;28;20047;-86
2022/01/06 07:15:34;;;;;;;24.50;3.08;;;6.60;99.90;;;;;;5057084;28;20036;-85
2022/01/06 07:17:59;;;;;;;16.73;3.45;;;5.20;99.90;;;;;;5060806;28;20264;-91
2022/01/06 07:20:25;;;;;;;16.90;2.78;;;4.60;99.90;;;;;;5076204;28;20160;-86
2022/01/06 07:22:51;;;;;;;21.13;3.25;;;5.10;99.90;;;;;;5077026;28;20051;-86
2022/01/06 07:25:17;;;;;;;17.42;2.72;;;4.60;99.90;;;;;;5091400;28;20036;-88
2022/01/06 07:27:42;;;;;;;22.85;2.92;;;7.80;99.90;;;;;;5059515;28;20097;-86
2022/01/06 07:30:09;;;;;;;17.02;2.65;;;7.30;99.90;;;;;;5059950;28;20090;-88
2022/01/06 07:32:46;;;;;;;12.10;2.85;;;4.90;99.90;;;;;;5059609;28;20589;-88
2022/01/06 07:35:13;;;;;;;18.58;2.75;;;5.40;99.90;;;;;;5056835;28;20032;-83
2022/01/06 07:37:38;;;;;;;16.95;2.55;;;3.40;99.90;;;;;;5075313;28;20044;-85
2022/01/06 07:40:06;;;;;;;11.07;2.38;;;7.20;99.90;;;;;;5079626;28;20399;-85
2022/01/06 07:42:32;;;;;;;19.75;3.08;;;5.10;99.90;;;;;;5081424;28;20035;-86
2022/01/06 07:45:00;;;;;;;16.60;3.10;;;5.50;99.90;;;;;;5052071;28;20059;-89
2022/01/06 07:47:31;;;;;;;20.95;2.97;;;6.70;99.90;;;;;;5059222;28;20420;-89
2022/01/06 07:49:59;;;;;;;18.10;2.72;;;3.10;99.90;;;;;;5075612;28;20443;-84
2022/01/06 07:52:25;;;;;;;17.77;3.05;;;4.50;99.90;;;;;;5076440;28;20044;-85
2022/01/06 07:54:51;;;;;;;19.13;2.90;;;5.10;99.90;;;;;;5058050;28;20044;-83
2022/01/06 07:57:17;;;;;;;17.67;2.85;;;5.20;99.90;;;;;;5093608;28;20040;-89
2022/01/06 07:59:43;;;;;;;24.92;3.55;;;4.80;99.90;;;;;;5059319;28;20050;-92
2022/01/06 08:02:09;;;;;;;24.73;3.20;;;3.60;99.90;;;;;;5059138;28;20047;-87
2022/01/06 08:04:37;;;;;;;18.33;3.00;;;4.40;99.90;;;;;;5059076;28;20040;-87
2022/01/06 08:07:11;;;;;;;18.90;4.18;;;6.40;99.90;;;;;;5082330;28;20119;-89
2022/01/06 08:09:36;;;;;;;18.23;2.95;;;4.30;99.90;;;;;;5070229;28;20048;-87
2022/01/06 08:12:02;;;;;;;19.13;2.85;;;4.60;99.90;;;;;;5072749;28;20424;-86
2022/01/06 08:14:29;;;;;;;18.02;2.72;;;4.30;99.90;;;;;;5093345;28;20518;-87
2022/01/06 08:16:55;;;;;;;15.80;3.00;;;4.40;99.90;;;;;;5075440;28;20047;-90
2022/01/06 08:19:21;;;;;;;17.85;3.20;;;4.10;99.90;;;;;;5055301;28;20039;-92
2022/01/06 08:21:46;;;;;;;20.08;3.17;;;5.90;99.90;;;;;;5058452;28;20204;-90
2022/01/06 08:24:14;;;;;;;16.25;3.47;;;3.00;99.90;;;;;;5074740;28;20508;-90
2022/01/06 08:26:40;;;;;;;24.38;3.40;;;3.90;99.90;;;;;;5057291;28;20130;-88
2022/01/06 08:29:06;;;;;;;18.00;3.60;;;5.30;99.90;;;;;;5057906;28;20509;-89
2022/01/06 08:31:34;;;;;;;20.65;3.67;;;5.80;99.90;;;;;;5058536;28;20122;-92
2022/01/06 08:34:00;;;;;;;25.83;5.70;;;3.80;99.90;;;;;;5058521;28;20048;-88
2022/01/06 08:36:29;;;;;;;21.58;3.15;;;3.40;99.90;;;;;;5074958;28;20051;-93
2022/01/06 08:39:10;;;;;;;14.23;2.80;;;4.60;99.90;;;;;;5059635;28;20055;-93
2022/01/06 08:41:58;;;;;;;16.60;2.80;;;3.90;99.90;;;;;;5058618;28;20048;-89
2022/01/06 08:44:32;;;;;;;12.98;2.78;;;3.10;99.90;;;;;;5059144;28;20051;-88
2022/01/06 08:47:01;;;;;;;12.70;2.92;;;5.70;99.90;;;;;;5058717;28;20044;-93
2022/01/06 08:49:36;;;;;;;16.40;3.20;;;3.80;99.90;;;;;;5059534;28;20520;-91
2022/01/06 08:52:06;;;;;;;11.82;2.45;;;6.30;99.90;;;;;;5059128;28;20131;-89
2022/01/06 08:54:31;;;;;;;16.65;3.83;;;3.90;99.90;;;;;;5058217;28;20059;-91
2022/01/06 08:56:57;;;;;;;18.90;2.75;;;4.60;99.90;;;;;;5057664;28;20040;-89
2022/01/06 08:59:23;;;;;;;15.45;3.00;;;4.20;99.90;;;;;;5074482;28;20036;-94
2022/01/06 09:01:49;;;;;;;14.00;2.83;;;3.50;99.90;;;;;;5060031;28;20075;-88
2022/01/06 09:04:24;;;;;;;16.30;2.88;;;5.50;99.90;;;;;;5058621;28;20127;-90
2022/01/06 09:06:50;;;;;;;392.50;20.40;;;5.90;99.90;;;;;;5057958;28;20040;-87
2022/01/06 09:09:20;;;;;;;10.50;2.53;;;5.60;99.90;;;;;;5070699;28;20100;-89
2022/01/06 09:11:46;;;;;;;11.98;2.20;;;2.90;99.90;;;;;;5057199;28;20525;-84
2022/01/06 09:14:12;;;;;;;12.27;2.30;;;3.90;99.90;;;;;;5058331;28;20044;-88
2022/01/06 09:16:42;;;;;;;14.68;3.38;;;5.30;99.90;;;;;;5074002;28;20081;-88
2022/01/06 09:19:10;;;;;;;20.00;4.38;;;4.60;99.90;;;;;;5057754;28;20055;-90
2022/01/06 09:21:46;;;;;;;16.63;2.78;;;6.70;99.90;;;;;;5075334;28;20044;-94
2022/01/06 09:24:12;;;;;;;17.17;2.78;;;4.00;99.90;;;;;;5057682;28;20055;-89
2022/01/06 09:26:38;;;;;;;21.70;3.25;;;4.40;99.90;;;;;;5056983;28;20032;-89
2022/01/06 09:29:06;;;;;;;16.92;3.03;;;7.10;99.90;;;;;;5056434;28;20039;-87
2022/01/06 09:31:36;;;;;;;27.17;3.53;;;7.20;99.90;;;;;;5074228;28;20459;-92
2022/01/06 09:34:04;;;;;;;15.02;2.65;;;6.90;99.90;;;;;;5058004;28;20044;-89
2022/01/06 09:36:34;;;;;;;25.10;3.72;;;4.40;99.90;;;;;;5057469;28;20032;-88
2022/01/06 09:39:01;;;;;;;19.65;3.38;;;7.80;99.90;;;;;;5073698;28;20040;-89
2022/01/06 09:41:29;;;;;;;12.82;3.15;;;6.80;99.90;;;;;;5078053;28;20055;-89
2022/01/06 09:43:55;;;;;;;16.20;2.92;;;6.40;99.90;;;;;;5061780;28;20055;-91
2022/01/06 09:46:22;;;;;;;25.05;2.80;;;8.30;99.90;;;;;;5078161;28;20036;-88
2022/01/06 09:48:48;;;;;;;24.10;3.92;;;8.20;99.90;;;;;;5078795;28;20044;-92
2022/01/06 09:51:15;;;;;;;14.63;3.15;;;7.90;99.90;;;;;;5062321;28;20051;-91
2022/01/06 09:53:41;;;;;;;18.00;3.17;;;8.20;99.90;;;;;;5061360;28;20040;-91
2022/01/06 09:56:10;;;;;;;19.30;3.67;;;8.60;99.90;;;;;;5061438;28;20040;-90
2022/01/06 09:58:36;;;;;;;25.33;3.90;;;6.80;99.90;;;;;;5077831;28;20404;-90
2022/01/06 10:01:02;;;;;;;16.30;3.05;;;8.60;99.90;;;;;;5062426;28;20104;-94
2022/01/06 10:03:34;;;;;;;17.92;3.00;;;6.80;99.90;;;;;;5061464;28;20123;-87
2022/01/06 10:06:22;;;;;;;17.15;2.65;;;6.70;99.90;;;;;;5065380;28;20131;-89
2022/01/06 10:08:53;;;;;;;14.70;2.33;;;6.60;99.90;;;;;;5060846;28;20060;-87
2022/01/06 10:11:24;;;;;;;15.13;2.20;;;8.50;99.90;;;;;;5076804;28;20497;-88
2022/01/06 10:14:00;;;;;;;6.70;1.50;;;6.90;99.90;;;;;;5077288;28;20507;-87
2022/01/06 10:16:32;;;;;;;10.98;1.75;;;6.50;99.90;;;;;;5077319;28;20044;-91
2022/01/06 10:19:05;;;;;;;7.70;1.70;;;6.70;99.90;;;;;;5061079;28;20063;-89
2022/01/06 10:21:40;;;;;;;9.68;1.88;;;8.90;99.90;;;;;;5077247;28;20389;-88
2022/01/06 10:24:09;;;;;;;11.15;1.92;;;6.60;99.90;;;;;;5076938;28;20044;-91
2022/01/06 10:26:36;;;;;;;11.63;1.80;;;7.50;99.90;;;;;;5060984;28;20051;-91
2022/01/06 10:29:06;;;;;;;10.85;1.80;;;6.90;99.90;;;;;;5061465;28;20047;-89
2022/01/06 10:31:35;;;;;;;8.43;2.15;;;7.50;99.90;;;;;;5061017;28;20050;-91
2022/01/06 10:34:07;;;;;;;9.27;1.88;;;8.10;99.90;;;;;;5061047;28;20092;-87
2022/01/06 10:36:35;;;;;;;16.05;2.00;;;8.50;99.90;;;;;;5077547;28;20491;-93
2022/01/06 10:39:05;;;;;;;18.77;2.47;;;9.10;99.90;;;;;;5076318;28;20368;-92
2022/01/06 10:41:40;;;;;;;14.77;2.28;;;8.50;99.90;;;;;;5059580;28;20040;-90
2022/01/06 10:44:10;;;;;;;9.13;1.85;;;8.40;99.90;;;;;;5060574;28;20051;-89
2022/01/06 10:46:40;;;;;;;13.45;2.72;;;10.00;99.90;;;;;;5059153;28;20040;-89
2022/01/06 10:49:12;;;;;;;9.27;2.05;;;10.20;99.90;;;;;;5075983;28;20087;-90
2022/01/06 10:51:41;;;;;;;14.60;2.75;;;8.60;99.90;;;;;;5053147;28;20044;-92
2022/01/06 10:54:14;;;;;;;22.77;4.22;;;8.30;99.90;;;;;;5059704;28;20039;-88
2022/01/06 10:56:40;;;;;;;17.25;2.80;;;10.30;99.90;;;;;;5094748;28;20676;-92
2022/01/06 10:59:06;;;;;;;16.00;2.80;;;8.40;99.90;;;;;;5093375;28;20105;-86
2022/01/06 11:01:33;;;;;;;16.83;2.80;;;10.00;99.90;;;;;;5077365;28;20052;-90
2022/01/06 11:03:59;;;;;;;10.25;2.10;;;9.80;99.90;;;;;;5061160;28;20518;-92
2022/01/06 11:06:25;;;;;;;12.50;2.15;;;9.00;99.90;;;;;;5057854;28;20082;-89
2022/01/06 11:08:54;;;;;;;16.73;2.67;;;9.90;99.90;;;;;;5049030;28;20041;-89
2022/01/06 11:11:31;;;;;;;16.85;2.33;;;8.70;99.90;;;;;;5059122;28;20040;-89
2022/01/06 11:13:56;;;;;;;16.00;2.30;;;8.90;99.90;;;;;;5090022;28;20059;-88
2022/01/06 11:16:22;;;;;;;9.85;2.15;;;8.60;99.90;;;;;;5069999;28;20040;-87
2022/01/06 11:18:55;;;;;;;10.30;1.85;;;10.10;99.90;;;;;;5073207;28;20108;-89
2022/01/06 11:21:26;;;;;;;11.55;1.75;;;9.00;99.90;;;;;;5074197;28;20024;-88
2022/01/06 11:24:08;;;;;;;12.90;2.50;;;8.80;99.90;;;;;;5057081;28;20123;-87
2022/01/06 11:26:37;;;;;;;13.25;2.00;;;8.70;99.90;;;;;;5055688;28;20070;-87
2022/01/06 11:29:03;;;;;;;11.85;2.13;;;8.40;99.90;;;;;;5055342;28;20455;-88
2022/01/06 11:31:39;;;;;;;11.77;1.88;;;8.70;99.90;;;;;;5073672;28;20044;-88
2022/01/06 11:34:18;;;;;;;10.60;2.17;;;8.60;99.90;;;;;;5066150;28;20055;-90
2022/01/06 11:36:52;;;;;;;8.50;2.40;;;10.70;99.90;;;;;;5071630;28;20113;-87
2022/01/06 11:39:24;;;;;;;9.98;2.10;;;10.60;99.90;;;;;;5072325;28;20048;-88
2022/01/06 11:41:52;;;;;;;10.27;1.75;;;8.80;99.90;;;;;;5058142;28;20445;-88
2022/01/06 11:44:25;;;;;;;10.85;1.83;;;9.80;99.90;;;;;;5074658;28;20433;-88
2022/01/06 11:46:56;;;;;;;12.07;2.17;;;8.60;99.90;;;;;;5057643;28;20036;-88
2022/01/06 11:49:40;;;;;;;8.82;1.70;;;10.00;99.90;;;;;;5072273;28;20153;-88
2022/01/06 11:52:12;;;;;;;9.57;1.58;;;8.90;99.90;;;;;;5074279;28;20059;-88
2022/01/06 11:54:51;;;;;;;9.82;1.83;;;9.60;99.90;;;;;;5058941;28;20368;-88
2022/01/06 11:57:38;;;;;;;7.25;1.85;;;10.60;99.90;;;;;;5071972;28;20085;-88
2022/01/06 12:00:22;;;;;;;16.20;1.85;;;9.90;99.90;;;;;;5068105;28;20408;-89
2022/01/06 12:03:03;;;;;;;11.02;2.15;;;8.70;99.90;;;;;;5058652;28;20054;-87
2022/01/06 12:05:41;;;;;;;10.93;1.90;;;9.40;99.90;;;;;;5073077;28;20040;-87
2022/01/06 12:08:07;;;;;;;7.15;1.63;;;8.90;99.90;;;;;;5071662;28;20039;-88
2022/01/06 12:10:41;;;;;;;10.02;2.40;;;10.30;99.90;;;;;;5054735;28;20046;-89
2022/01/06 12:13:07;;;;;;;7.10;1.48;;;9.90;99.90;;;;;;5071730;28;20046;-89
2022/01/06 12:15:33;;;;;;;14.55;2.05;;;11.20;99.90;;;;;;5057444;28;20138;-88
2022/01/06 12:17:59;;;;;;;12.50;2.17;;;8.80;99.90;;;;;;5071751;28;20071;-88
2022/01/06 12:20:30;;;;;;;2.55;1.35;;;8.60;99.90;;;;;;5054161;28;20128;-88
2022/01/06 12:22:56;;;;;;;13.00;1.60;;;8.80;99.90;;;;;;5055007;28;20028;-88
2022/01/06 12:25:23;;;;;;;8.75;2.17;;;10.10;99.90;;;;;;5074044;28;20048;-88
2022/01/06 12:27:53;;;;;;;7.40;1.58;;;8.80;99.90;;;;;;5072903;28;20048;-88
2022/01/06 12:30:21;;;;;;;8.30;1.40;;;10.30;99.90;;;;;;5071399;28;20080;-89
2022/01/06 12:32:57;;;;;;;8.23;1.92;;;8.50;99.90;;;;;;5069758;28;20071;-87
2022/01/06 12:35:35;;;;;;;15.65;2.40;;;8.60;99.90;;;;;;5073566;28;20071;-89
2022/01/06 12:38:00;;;;;;;12.93;2.15;;;8.60;99.90;;;;;;5076675;28;20044;-89
2022/01/06 12:40:33;;;;;;;7.75;1.58;;;8.40;99.90;;;;;;5074455;28;20389;-88
2022/01/06 12:42:58;;;;;;;8.52;1.98;;;8.50;99.90;;;;;;5054280;28;20048;-87
2022/01/06 12:45:24;;;;;;;13.88;2.35;;;8.70;99.90;;;;;;5074768;28;20380;-89
2022/01/06 12:47:53;;;;;;;8.57;1.80;;;8.70;99.90;;;;;;5057500;28;20487;-89
2022/01/06 12:50:18;;;;;;;7.40;1.70;;;8.60;99.90;;;;;;5055779;28;20028;-86
2022/01/06 12:52:47;;;;;;;12.55;2.17;;;8.50;99.90;;;;;;5090070;28;21358;-89
2022/01/06 12:55:12;;;;;;;20.35;2.38;;;8.30;99.90;;;;;;5069932;28;20036;-89
2022/01/06 12:57:41;;;;;;;10.68;1.67;;;8.60;99.90;;;;;;5075209;28;20038;-94
2022/01/06 13:00:11;;;;;;;10.70;1.85;;;8.80;99.90;;;;;;5060117;28;20683;-94